createdAt,value
2022-11-15T00:02:05.128Z,12.21
2022-11-15T00:05:10.814Z,12.18
2022-11-15T00:08:16.501Z,12.17
2022-11-15T00:11:23.518Z,12.20
2022-11-15T00:14:29.048Z,12.20
2022-11-15T00:17:35.016Z,12.23
2022-11-15T00:20:40.642Z,12.20
2022-11-15T00:23:46.181Z,12.18
2022-11-15T00:26:53.103Z,12.16
2022-11-15T00:29:58.740Z,12.13
2022-11-15T00:33:05.388Z,12.11
2022-11-15T00:36:11.778Z,12.10
2022-11-15T00:39:17.469Z,12.13
2022-11-15T00:42:24.605Z,12.13
2022-11-15T00:45:30.206Z,12.07
2022-11-15T00:48:35.332Z,12.07
2022-11-15T00:51:41.069Z,12.03
2022-11-15T00:54:46.585Z,12.05
2022-11-15T00:57:53.360Z,12.06
2022-11-15T01:00:58.873Z,12.05
2022-11-15T01:04:04.297Z,12.15
2022-11-15T01:07:09.703Z,12.11
2022-11-15T01:10:15.148Z,12.09
2022-11-15T01:13:21.899Z,12.11
2022-11-15T01:16:27.460Z,12.12
2022-11-15T01:19:32.870Z,12.13
2022-11-15T01:22:38.325Z,12.08
2022-11-15T01:25:43.685Z,12.11
2022-11-15T01:28:50.714Z,12.14
2022-11-15T01:31:56.208Z,12.15
2022-11-15T01:35:01.658Z,12.12
2022-11-15T01:38:07.394Z,12.14
2022-11-15T01:41:19.266Z,12.14
2022-11-15T01:44:42.480Z,12.11
2022-11-15T01:47:52.825Z,12.11
2022-11-15T01:50:58.874Z,12.10
2022-11-15T01:54:08.718Z,12.07
2022-11-15T01:57:15.372Z,12.06
2022-11-15T02:00:22.557Z,12.07
2022-11-15T02:03:43.870Z,12.05
2022-11-15T02:06:51.179Z,12.07
2022-11-15T02:09:58.495Z,12.02
2022-11-15T02:13:04.634Z,12.04
2022-11-15T02:16:18.449Z,12.05
2022-11-15T02:19:42.480Z,12.04
2022-11-15T02:23:02.849Z,12.03
2022-11-15T02:26:32.840Z,12.01
2022-11-15T02:30:06.156Z,11.96
2022-11-15T02:33:24.119Z,11.96
2022-11-15T02:36:39.699Z,11.91
2022-11-15T02:39:51.981Z,11.96
2022-11-15T02:43:19.726Z,11.98
2022-11-15T02:46:44.303Z,11.97
2022-11-15T02:49:54.214Z,11.94
2022-11-15T02:52:59.684Z,11.95
2022-11-15T02:56:05.253Z,11.97
2022-11-15T02:59:24.779Z,11.96
2022-11-15T03:02:48.051Z,11.95
2022-11-15T03:06:06.156Z,11.99
2022-11-15T03:09:19.680Z,11.98
2022-11-15T03:12:32.401Z,11.99
2022-11-15T03:15:42.629Z,12.03
2022-11-15T03:18:52.054Z,12.00
2022-11-15T03:22:01.996Z,12.06
2022-11-15T03:25:11.634Z,12.08
2022-11-15T03:28:22.483Z,12.09
2022-11-15T03:31:51.630Z,12.09
2022-11-15T03:35:01.113Z,12.11
2022-11-15T03:38:17.744Z,12.12
2022-11-15T03:41:30.113Z,12.13
2022-11-15T03:44:43.519Z,12.11
2022-11-15T03:47:53.864Z,12.06
2022-11-15T03:50:59.742Z,12.03
2022-11-15T03:54:07.595Z,12.06
2022-11-15T03:57:13.536Z,12.06
2022-11-15T04:00:19.396Z,12.07
2022-11-15T04:03:24.702Z,12.10
2022-11-15T04:06:30.077Z,12.11
2022-11-15T04:09:58.090Z,12.09
2022-11-15T04:13:05.212Z,12.05
2022-11-15T04:16:11.395Z,12.00
2022-11-15T04:19:34.609Z,11.97
2022-11-15T04:22:57.435Z,11.93
2022-11-15T04:26:08.115Z,11.93
2022-11-15T04:29:31.221Z,11.97
2022-11-15T04:32:38.410Z,11.99
2022-11-15T04:36:05.474Z,12.01
2022-11-15T04:39:11.139Z,11.97
2022-11-15T04:42:18.119Z,11.95
2022-11-15T04:45:26.606Z,11.94
2022-11-15T04:48:31.814Z,11.92
2022-11-15T04:51:37.271Z,11.92
2022-11-15T04:54:43.816Z,11.93
2022-11-15T04:58:00.098Z,11.92
2022-11-15T05:01:09.365Z,11.91
2022-11-15T05:04:23.725Z,11.94
2022-11-15T05:07:29.170Z,11.95
2022-11-15T05:10:34.780Z,11.94
2022-11-15T05:13:41.873Z,11.91
2022-11-15T05:16:47.072Z,11.88
2022-11-15T05:19:52.906Z,11.87
2022-11-15T05:22:58.283Z,11.83
2022-11-15T05:26:09.061Z,11.81
2022-11-15T05:29:16.679Z,11.84
2022-11-15T05:32:23.134Z,11.78
2022-11-15T05:35:33.011Z,11.80
2022-11-15T05:38:38.399Z,11.82
2022-11-15T05:41:46.867Z,11.80
2022-11-15T05:44:53.264Z,11.78
2022-11-15T05:48:02.437Z,11.79
2022-11-15T05:51:09.521Z,11.79
2022-11-15T05:54:15.857Z,11.78
2022-11-15T05:57:21.304Z,11.80
2022-11-15T06:00:28.184Z,11.82
2022-11-15T06:03:33.888Z,11.82
2022-11-15T06:06:39.625Z,11.82
2022-11-15T06:09:45.066Z,11.83
2022-11-15T06:12:58.498Z,11.82
2022-11-15T06:16:05.752Z,11.81
2022-11-15T06:19:11.197Z,11.78
2022-11-15T06:22:16.531Z,11.76
2022-11-15T06:25:22.023Z,11.74
2022-11-15T06:28:30.758Z,11.73
2022-11-15T06:31:38.186Z,11.72
2022-11-15T06:34:43.832Z,11.73
2022-11-15T06:37:49.363Z,11.73
2022-11-15T06:40:54.614Z,11.73
2022-11-15T06:44:00.352Z,11.75
2022-11-15T06:47:07.317Z,11.77
2022-11-15T06:50:12.807Z,11.83
2022-11-15T06:53:18.031Z,11.86
2022-11-15T06:56:23.409Z,11.87
2022-11-15T06:59:28.887Z,11.91
2022-11-15T07:02:35.754Z,11.94
2022-11-15T07:05:41.278Z,11.98
2022-11-15T07:08:47.447Z,12.05
2022-11-15T07:11:53.071Z,12.13
2022-11-15T07:14:58.230Z,12.21
2022-11-15T07:18:05.063Z,12.27
2022-11-15T07:21:12.441Z,12.33
2022-11-15T07:24:18.214Z,12.40
2022-11-15T07:27:23.846Z,12.44
2022-11-15T07:30:30.187Z,12.51
2022-11-15T07:33:37.258Z,12.57
2022-11-15T07:36:42.977Z,12.70
2022-11-15T07:39:48.782Z,12.83
2022-11-15T07:42:58.107Z,12.92
2022-11-15T07:46:10.144Z,13.04
2022-11-15T07:49:17.045Z,13.14
2022-11-15T07:52:22.988Z,13.25
2022-11-15T07:55:30.804Z,13.33
2022-11-15T07:58:36.420Z,13.43
2022-11-15T08:01:42.303Z,13.49
2022-11-15T08:04:49.350Z,13.57
2022-11-15T08:07:57.360Z,13.63
2022-11-15T08:11:03.389Z,13.70
2022-11-15T08:14:08.911Z,13.84
2022-11-15T08:17:14.691Z,13.94
2022-11-15T08:20:21.684Z,14.03
2022-11-15T08:23:26.934Z,14.13
2022-11-15T08:26:32.563Z,14.21
2022-11-15T08:29:38.628Z,14.31
2022-11-15T08:32:44.022Z,14.39
2022-11-15T08:35:50.787Z,14.49
2022-11-15T08:38:56.279Z,14.61
2022-11-15T08:42:01.778Z,14.73
2022-11-15T08:45:08.929Z,14.80
2022-11-15T08:48:14.248Z,14.95
2022-11-15T08:51:20.940Z,15.09
2022-11-15T08:54:26.877Z,15.17
2022-11-15T08:57:32.483Z,15.29
2022-11-15T09:00:37.894Z,15.43
2022-11-15T09:03:43.350Z,15.55
2022-11-15T09:06:51.276Z,15.65
2022-11-15T09:09:57.646Z,15.74
2022-11-15T09:13:03.069Z,15.90
2022-11-15T09:16:08.933Z,15.98
2022-11-15T09:19:15.779Z,15.98
2022-11-15T09:22:23.335Z,16.19
2022-11-15T09:25:29.198Z,16.39
2022-11-15T09:28:35.799Z,16.50
2022-11-15T09:31:41.211Z,16.66
2022-11-15T09:34:46.743Z,16.77
2022-11-15T09:37:56.346Z,16.88
2022-11-15T09:41:23.655Z,17.02
2022-11-15T09:44:51.922Z,17.16
2022-11-15T09:48:36.017Z,17.38
2022-11-15T09:51:30.037Z,17.58
2022-11-15T09:57:47.783Z,17.76
2022-11-15T10:00:46.341Z,17.92
2022-11-15T10:03:38.477Z,17.99
2022-11-15T10:06:27.429Z,18.12
2022-11-15T10:09:22.847Z,18.21
2022-11-15T10:12:14.999Z,18.25
2022-11-15T10:15:06.239Z,18.35
2022-11-15T10:18:09.974Z,18.39
2022-11-15T10:21:01.442Z,18.43
2022-11-15T10:23:48.204Z,18.59
2022-11-15T10:26:35.016Z,18.72
2022-11-15T10:29:27.104Z,18.80
2022-11-15T10:32:15.743Z,18.91
2022-11-15T10:35:19.500Z,18.85
2022-11-15T10:38:08.562Z,18.71
2022-11-15T10:41:09.233Z,18.84
2022-11-15T10:44:10.649Z,18.86
2022-11-15T10:47:37.830Z,18.91
2022-11-15T10:50:32.985Z,18.98
2022-11-15T10:53:25.924Z,18.99
2022-11-15T10:56:17.005Z,18.91
2022-11-15T10:59:03.878Z,19.03
2022-11-15T11:01:51.228Z,19.07
2022-11-15T11:04:51.909Z,19.22
2022-11-15T11:07:41.682Z,19.31
2022-11-15T11:10:50.354Z,19.32
2022-11-15T11:13:37.930Z,19.38
2022-11-15T11:16:47.163Z,19.49
2022-11-15T11:19:59.071Z,19.51
2022-11-15T11:22:59.679Z,19.57
2022-11-15T11:25:55.488Z,19.71
2022-11-15T11:28:38.445Z,19.78
2022-11-15T11:31:22.254Z,19.81
2022-11-15T11:34:00.769Z,19.87
2022-11-15T11:36:41.245Z,19.78
2022-11-15T11:39:26.365Z,19.76
2022-11-15T11:42:04.927Z,19.83
2022-11-15T11:44:41.550Z,19.94
2022-11-15T11:47:13.120Z,20.02
2022-11-15T11:49:46.931Z,20.20
2022-11-15T11:52:19.090Z,20.18
2022-11-15T11:55:05.967Z,20.34
2022-11-15T11:57:44.017Z,20.44
2022-11-15T12:00:22.117Z,20.52
2022-11-15T12:03:10.208Z,20.64
2022-11-15T12:05:42.627Z,20.66
2022-11-15T12:08:28.105Z,20.75
2022-11-15T12:11:05.902Z,20.92
2022-11-15T12:13:37.797Z,20.98
2022-11-15T12:16:14.126Z,21.22
2022-11-15T12:18:46.739Z,21.17
2022-11-15T12:21:28.102Z,21.35
2022-11-15T12:24:05.111Z,21.44
2022-11-15T12:26:39.542Z,21.49
2022-11-15T12:29:14.176Z,21.45
2022-11-15T12:31:46.871Z,21.43
2022-11-15T12:34:32.461Z,21.49
2022-11-15T12:37:00.761Z,21.53
2022-11-15T12:40:06.996Z,21.53
2022-11-15T12:42:43.325Z,21.59
2022-11-15T12:45:28.490Z,21.60
2022-11-15T12:48:14.031Z,21.64
2022-11-15T12:50:59.136Z,21.67
2022-11-15T12:53:31.915Z,21.70
2022-11-15T12:56:25.982Z,21.57
2022-11-15T12:58:58.289Z,21.69
2022-11-15T13:01:59.851Z,21.65
2022-11-15T13:04:30.736Z,21.59
2022-11-15T13:07:04.217Z,21.65
2022-11-15T13:09:55.995Z,21.69
2022-11-15T13:12:54.887Z,21.69
2022-11-15T13:16:00.654Z,21.58
2022-11-15T13:18:38.343Z,21.51
2022-11-15T13:21:38.829Z,21.58
2022-11-15T13:24:14.423Z,21.61
2022-11-15T13:26:42.704Z,21.68
2022-11-15T13:29:19.666Z,21.59
2022-11-15T13:31:50.303Z,21.63
2022-11-15T13:37:32.079Z,21.54
2022-11-15T13:40:20.194Z,21.49
2022-11-15T13:42:48.497Z,21.44
2022-11-15T13:45:19.717Z,21.40
2022-11-15T13:47:56.510Z,21.42
2022-11-15T13:50:28.668Z,21.40
2022-11-15T13:53:00.799Z,21.37
2022-11-15T13:55:30.518Z,21.35
2022-11-15T13:58:01.023Z,21.37
2022-11-15T14:00:39.719Z,21.36
2022-11-15T14:03:18.520Z,21.35
2022-11-15T14:06:03.283Z,21.35
2022-11-15T14:08:32.308Z,21.32
2022-11-15T14:11:17.751Z,21.32
2022-11-15T14:14:06.701Z,21.32
2022-11-15T14:16:37.544Z,21.28
2022-11-15T14:19:09.178Z,21.18
2022-11-15T14:21:38.505Z,21.06
2022-11-15T14:24:17.384Z,20.98
2022-11-15T14:26:46.374Z,20.92
2022-11-15T14:29:25.207Z,20.80
2022-11-15T14:31:53.594Z,20.69
2022-11-15T14:34:23.668Z,20.52
2022-11-15T14:36:52.277Z,20.39
2022-11-15T14:39:20.454Z,20.26
2022-11-15T14:41:50.107Z,20.12
2022-11-15T14:44:51.174Z,19.91
2022-11-15T14:47:20.699Z,19.70
2022-11-15T14:49:50.309Z,19.51
2022-11-15T14:52:32.236Z,19.35
2022-11-15T14:55:03.264Z,19.21
2022-11-15T14:57:32.334Z,19.09
2022-11-15T15:00:00.832Z,18.99
2022-11-15T15:02:40.987Z,18.83
2022-11-15T15:05:19.411Z,18.68
2022-11-15T15:07:48.768Z,18.55
2022-11-15T15:10:39.584Z,18.42
2022-11-15T15:13:08.538Z,18.26
2022-11-15T15:15:38.632Z,18.04
2022-11-15T15:18:09.477Z,17.83
2022-11-15T15:20:41.261Z,17.65
2022-11-15T15:23:17.616Z,17.53
2022-11-15T15:25:47.313Z,17.47
2022-11-15T15:28:15.832Z,17.32
2022-11-15T15:30:44.065Z,17.15
2022-11-15T15:33:12.351Z,17.09
2022-11-15T15:35:42.244Z,17.02
2022-11-15T15:38:13.093Z,16.94
2022-11-15T15:40:41.670Z,16.89
2022-11-15T15:43:10.303Z,16.86
2022-11-15T15:45:40.335Z,16.81
2022-11-15T15:48:13.328Z,16.74
2022-11-15T15:50:44.245Z,16.70
2022-11-15T15:53:13.756Z,16.62
2022-11-15T15:55:42.427Z,16.56
2022-11-15T15:58:10.693Z,16.50
2022-11-15T16:00:39.833Z,16.45
2022-11-15T16:03:08.444Z,16.42
2022-11-15T16:05:36.804Z,16.34
2022-11-15T16:08:06.689Z,16.22
2022-11-15T16:10:37.691Z,16.02
2022-11-15T16:13:06.132Z,15.91
2022-11-15T16:15:34.683Z,15.86
2022-11-15T16:18:03.627Z,15.86
2022-11-15T16:20:38.311Z,15.83
2022-11-15T16:23:10.961Z,15.84
2022-11-15T16:25:41.872Z,15.81
2022-11-15T16:28:18.751Z,15.78
2022-11-15T16:30:50.018Z,15.75
2022-11-15T16:33:22.301Z,15.72
2022-11-15T16:35:50.483Z,15.67
2022-11-15T16:38:20.298Z,15.62
2022-11-15T16:40:48.809Z,15.57
2022-11-15T16:43:17.122Z,15.58
2022-11-15T16:45:45.305Z,15.58
2022-11-15T16:48:23.708Z,15.61
2022-11-15T16:50:52.511Z,15.59
2022-11-15T16:53:22.336Z,15.56
2022-11-15T16:55:50.709Z,15.52
2022-11-15T16:58:18.883Z,15.46
2022-11-15T17:00:47.367Z,15.42
2022-11-15T17:03:15.469Z,15.39
2022-11-15T17:05:43.672Z,15.36
2022-11-15T17:08:12.135Z,15.35
2022-11-15T17:10:42.413Z,15.29
2022-11-15T17:13:13.207Z,15.24
2022-11-15T17:15:41.742Z,15.18
2022-11-15T17:18:12.318Z,15.15
2022-11-15T17:20:41.906Z,15.12
2022-11-15T17:23:14.501Z,15.13
2022-11-15T17:25:45.711Z,15.11
2022-11-15T17:28:14.105Z,15.04
2022-11-15T17:30:43.839Z,15.00
2022-11-15T17:33:12.226Z,14.99
2022-11-15T17:35:40.712Z,14.97
2022-11-15T17:38:08.847Z,14.95
2022-11-15T17:40:37.093Z,14.94
2022-11-15T17:43:07.852Z,14.91
2022-11-15T17:45:37.519Z,14.88
2022-11-15T17:48:06.219Z,14.85
2022-11-15T17:50:34.372Z,14.82
2022-11-15T17:53:02.587Z,14.81
2022-11-15T17:55:31.048Z,14.79
2022-11-15T17:57:59.149Z,14.78
2022-11-15T18:00:28.750Z,14.78
2022-11-15T18:02:58.327Z,14.78
2022-11-15T18:05:26.536Z,14.77
2022-11-15T18:07:54.750Z,14.77
2022-11-15T18:10:23.403Z,14.75
2022-11-15T18:12:51.586Z,14.74
2022-11-15T18:15:21.349Z,14.73
2022-11-15T18:17:51.140Z,14.75
2022-11-15T18:20:19.729Z,14.75
2022-11-15T18:22:48.256Z,14.78
2022-11-15T18:25:16.826Z,14.80
2022-11-15T18:27:45.132Z,14.82
2022-11-15T18:30:14.126Z,14.82
2022-11-15T18:32:43.003Z,14.83
2022-11-15T18:35:12.739Z,14.79
2022-11-15T18:37:41.026Z,14.73
2022-11-15T18:40:10.755Z,14.70
2022-11-15T18:42:39.271Z,14.68
2022-11-15T18:45:09.604Z,14.68
2022-11-15T18:47:38.589Z,14.70
2022-11-15T18:50:07.497Z,14.70
2022-11-15T18:52:37.093Z,14.70
2022-11-15T18:55:06.202Z,14.71
2022-11-15T18:57:34.513Z,14.75
2022-11-15T19:00:03.051Z,14.78
2022-11-15T19:02:31.892Z,14.82
2022-11-15T19:05:00.190Z,14.85
2022-11-15T19:07:28.472Z,14.87
2022-11-15T19:09:58.396Z,14.86
2022-11-15T19:12:26.678Z,14.80
2022-11-15T19:14:54.902Z,14.77
2022-11-15T19:17:23.443Z,14.74
2022-11-15T19:19:51.771Z,14.70
2022-11-15T19:22:20.076Z,14.70
2022-11-15T19:24:48.651Z,14.68
2022-11-15T19:27:18.425Z,14.68
2022-11-15T19:29:46.974Z,14.66
2022-11-15T19:32:15.657Z,14.66
2022-11-15T19:34:44.062Z,14.62
2022-11-15T19:37:12.406Z,14.59
2022-11-15T19:39:41.486Z,14.57
2022-11-15T19:42:09.742Z,14.56
2022-11-15T19:44:39.288Z,14.57
2022-11-15T19:47:09.323Z,14.53
2022-11-15T19:49:37.711Z,14.56
2022-11-15T19:52:06.298Z,14.60
2022-11-15T19:54:34.864Z,14.59
2022-11-15T19:57:03.200Z,14.59
2022-11-15T19:59:31.537Z,14.59
2022-11-15T20:02:01.707Z,14.57
2022-11-15T20:04:30.163Z,14.57
2022-11-15T20:06:58.281Z,14.55
2022-11-15T20:09:26.656Z,14.53
2022-11-15T20:11:55.436Z,14.48
2022-11-15T20:14:24.145Z,14.48
2022-11-15T20:16:54.469Z,14.37
2022-11-15T20:19:24.679Z,14.27
2022-11-15T20:21:53.217Z,14.15
2022-11-15T20:24:21.540Z,14.07
2022-11-15T20:26:50.055Z,14.06
2022-11-15T20:29:18.155Z,14.03
2022-11-15T20:31:46.777Z,14.02
2022-11-15T20:34:15.972Z,14.00
2022-11-15T20:36:45.594Z,13.99
2022-11-15T20:39:13.774Z,13.91
2022-11-15T20:41:42.388Z,13.84
2022-11-15T20:44:10.659Z,13.79
2022-11-15T20:46:38.813Z,13.72
2022-11-15T20:49:07.438Z,13.68
2022-11-15T20:51:36.450Z,13.59
2022-11-15T20:54:06.285Z,13.49
2022-11-15T20:56:34.758Z,13.43
2022-11-15T20:59:02.925Z,13.35
2022-11-15T21:01:31.944Z,13.27
2022-11-15T21:04:00.826Z,13.21
2022-11-15T21:06:28.968Z,13.17
2022-11-15T21:09:14.662Z,13.16
2022-11-15T21:12:02.359Z,13.15
2022-11-15T21:14:31.259Z,13.13
2022-11-15T21:16:59.759Z,13.08
2022-11-15T21:19:32.682Z,13.05
2022-11-15T21:22:05.539Z,13.10
2022-11-15T21:24:33.798Z,13.14
2022-11-15T21:27:03.603Z,13.13
2022-11-15T21:29:37.598Z,13.05
2022-11-15T21:32:07.427Z,12.94
2022-11-15T21:34:36.050Z,12.77
2022-11-15T21:37:04.333Z,12.64
2022-11-15T21:39:32.462Z,12.59
2022-11-15T21:42:01.042Z,12.56
2022-11-15T21:44:30.889Z,12.55
2022-11-15T21:46:59.287Z,12.50
2022-11-15T21:49:27.789Z,12.41
2022-11-15T21:51:55.947Z,12.36
2022-11-15T21:54:24.168Z,12.40
2022-11-15T21:56:52.648Z,12.41
2022-11-15T21:59:20.735Z,12.44
2022-11-15T22:02:07.607Z,12.44
2022-11-15T22:04:36.073Z,12.45
2022-11-15T22:07:04.267Z,12.43
2022-11-15T22:09:32.369Z,12.44
2022-11-15T22:12:00.932Z,12.41
2022-11-15T22:14:29.177Z,12.37
2022-11-15T22:16:58.623Z,12.30
2022-11-15T22:19:27.214Z,12.29
2022-11-15T22:21:55.490Z,12.23
2022-11-15T22:24:23.683Z,12.22
2022-11-15T22:26:52.901Z,12.23
2022-11-15T22:29:21.286Z,12.20
2022-11-15T22:31:49.550Z,12.14
2022-11-15T22:34:19.707Z,12.11
2022-11-15T22:37:18.038Z,12.06
2022-11-15T22:39:36.478Z,12.05
2022-11-15T22:42:04.782Z,12.03
2022-11-15T22:44:32.999Z,12.01
2022-11-15T22:47:01.439Z,12.00
2022-11-15T22:49:30.951Z,12.00
2022-11-15T22:51:59.335Z,11.99
2022-11-15T22:54:28.835Z,12.00
2022-11-15T22:56:57.322Z,12.07
2022-11-15T22:59:26.209Z,12.07
2022-11-15T23:01:54.701Z,12.11
2022-11-15T23:04:23.310Z,12.13
2022-11-15T23:06:53.089Z,12.16
2022-11-15T23:09:21.846Z,12.18
2022-11-15T23:12:07.594Z,12.20
2022-11-15T23:14:36.087Z,12.21
2022-11-15T23:17:04.317Z,12.22
2022-11-15T23:19:32.567Z,12.23
2022-11-15T23:22:20.378Z,12.24
2022-11-15T23:24:48.635Z,12.24
2022-11-15T23:27:19.974Z,12.23
2022-11-15T23:30:06.186Z,12.21
2022-11-15T23:32:52.186Z,12.21
2022-11-15T23:35:20.750Z,12.20
2022-11-15T23:37:50.980Z,12.16
2022-11-15T23:40:19.385Z,12.13
2022-11-15T23:42:47.753Z,12.12
2022-11-15T23:45:16.373Z,12.07
2022-11-15T23:47:49.757Z,12.06
2022-11-15T23:50:18.621Z,12.08
2022-11-15T23:52:46.838Z,12.07
2022-11-15T23:55:16.638Z,12.06
2022-11-15T23:57:45.160Z,12.10
